sensor_id;sensor_type;location;lat;lon;timestamp;pressure;altitude;pressure_sealevel;temperature;humidity
66887;BME280;67239;51.680;5.976;2024-02-16T00:00:13;100893.63;;;10.73;100.00
66887;BME280;67239;51.680;5.976;2024-02-16T00:02:41;100892.81;;;10.69;100.00
66887;BME280;67239;51.680;5.976;2024-02-16T00:05:10;100893.78;;;10.67;100.00
66887;BME280;67239;51.680;5.976;2024-02-16T00:07:40;100889.53;;;10.63;100.00
66887;BME280;67239;51.680;5.976;2024-02-16T00:10:08;100892.31;;;10.58;100.00
66887;BME280;67239;51.680;5.976;2024-02-16T00:12:37;100895.00;;;10.55;100.00
66887;BME280;67239;51.680;5.976;2024-02-16T00:15:05;100888.06;;;10.52;100.00
66887;BME280;67239;51.680;5.976;2024-02-16T00:17:33;100884.63;;;10.49;100.00
66887;BME280;67239;51.680;5.976;2024-02-16T00:20:00;100890.78;;;10.49;100.00
66887;BME280;67239;51.680;5.976;2024-02-16T00:22:28;100882.94;;;10.48;100.00
66887;BME280;67239;51.680;5.976;2024-02-16T00:24:55;100886.41;;;10.48;100.00
66887;BME280;67239;51.680;5.976;2024-02-16T00:27:22;100879.41;;;10.47;100.00
66887;BME280;67239;51.680;5.976;2024-02-16T00:29:49;100877.66;;;10.48;100.00
66887;BME280;67239;51.680;5.976;2024-02-16T00:32:17;100878.50;;;10.48;100.00
66887;BME280;67239;51.680;5.976;2024-02-16T00:34:44;100879.38;;;10.49;100.00
66887;BME280;67239;51.680;5.976;2024-02-16T00:37:11;100872.38;;;10.48;100.00
66887;BME280;67239;51.680;5.976;2024-02-16T00:39:39;100875.88;;;10.48;100.00
66887;BME280;67239;51.680;5.976;2024-02-16T00:42:09;100875.03;;;10.48;100.00
66887;BME280;67239;51.680;5.976;2024-02-16T00:44:38;100867.06;;;10.49;100.00
66887;BME280;67239;51.680;5.976;2024-02-16T00:47:05;100867.00;;;10.51;100.00
66887;BME280;67239;51.680;5.976;2024-02-16T00:49:33;100864.28;;;10.54;100.00
66887;BME280;67239;51.680;5.976;2024-02-16T00:52:00;100862.34;;;10.61;100.00
66887;BME280;67239;51.680;5.976;2024-02-16T00:54:28;100861.31;;;10.65;100.00
66887;BME280;67239;51.680;5.976;2024-02-16T00:56:56;100851.50;;;10.70;100.00
66887;BME280;67239;51.680;5.976;2024-02-16T00:59:29;100858.38;;;10.76;100.00
66887;BME280;67239;51.680;5.976;2024-02-16T01:01:56;100849.41;;;10.81;100.00
66887;BME280;67239;51.680;5.976;2024-02-16T01:04:23;100863.28;;;10.88;100.00
66887;BME280;67239;51.680;5.976;2024-02-16T01:06:50;100857.88;;;10.91;100.00
66887;BME280;67239;51.680;5.976;2024-02-16T01:09:17;100867.47;;;10.94;100.00
66887;BME280;67239;51.680;5.976;2024-02-16T01:11:45;100863.97;;;10.93;100.00
66887;BME280;67239;51.680;5.976;2024-02-16T01:14:12;100868.44;;;10.91;100.00
66887;BME280;67239;51.680;5.976;2024-02-16T01:16:39;100857.94;;;10.90;100.00
66887;BME280;67239;51.680;5.976;2024-02-16T01:19:06;100860.66;;;10.86;100.00
66887;BME280;67239;51.680;5.976;2024-02-16T01:21:34;100846.66;;;10.84;100.00
66887;BME280;67239;51.680;5.976;2024-02-16T01:24:01;100842.34;;;10.82;100.00
66887;BME280;67239;51.680;5.976;2024-02-16T01:26:29;100848.59;;;10.79;100.00
66887;BME280;67239;51.680;5.976;2024-02-16T01:28:56;100850.31;;;10.80;100.00
66887;BME280;67239;51.680;5.976;2024-02-16T01:31:24;100850.31;;;10.80;100.00
66887;BME280;67239;51.680;5.976;2024-02-16T01:33:52;100847.63;;;10.82;100.00
66887;BME280;67239;51.680;5.976;2024-02-16T01:36:19;100842.31;;;10.83;100.00
66887;BME280;67239;51.680;5.976;2024-02-16T01:38:46;100839.69;;;10.83;100.00
66887;BME280;67239;51.680;5.976;2024-02-16T01:41:13;100844.97;;;10.83;100.00
66887;BME280;67239;51.680;5.976;2024-02-16T01:43:42;100852.81;;;10.85;100.00
66887;BME280;67239;51.680;5.976;2024-02-16T01:46:09;100846.63;;;10.86;100.00
66887;BME280;67239;51.680;5.976;2024-02-16T01:48:36;100844.00;;;10.84;100.00
66887;BME280;67239;51.680;5.976;2024-02-16T01:51:08;100843.16;;;10.84;100.00
66887;BME280;67239;51.680;5.976;2024-02-16T01:53:36;100844.91;;;10.85;100.00
66887;BME280;67239;51.680;5.976;2024-02-16T01:56:05;100844.00;;;10.86;100.00
66887;BME280;67239;51.680;5.976;2024-02-16T01:58:33;100849.25;;;10.86;100.00
66887;BME280;67239;51.680;5.976;2024-02-16T02:01:00;100839.69;;;10.83;100.00
66887;BME280;67239;51.680;5.976;2024-02-16T02:03:28;100831.81;;;10.82;100.00
66887;BME280;67239;51.680;5.976;2024-02-16T02:05:56;100834.53;;;10.79;100.00
66887;BME280;67239;51.680;5.976;2024-02-16T02:08:25;100832.84;;;10.76;100.00
66887;BME280;67239;51.680;5.976;2024-02-16T02:10:53;100828.53;;;10.74;100.00
66887;BME280;67239;51.680;5.976;2024-02-16T02:13:21;100827.72;;;10.71;100.00
66887;BME280;67239;51.680;5.976;2024-02-16T02:15:49;100819.00;;;10.69;100.00
66887;BME280;67239;51.680;5.976;2024-02-16T02:18:16;100819.91;;;10.68;100.00
66887;BME280;67239;51.680;5.976;2024-02-16T02:20:44;100816.41;;;10.68;100.00
66887;BME280;67239;51.680;5.976;2024-02-16T02:23:11;100807.66;;;10.67;100.00
66887;BME280;67239;51.680;5.976;2024-02-16T02:25:38;100811.97;;;10.70;100.00
66887;BME280;67239;51.680;5.976;2024-02-16T02:28:07;100811.88;;;10.73;100.00
66887;BME280;67239;51.680;5.976;2024-02-16T02:30:35;100805.66;;;10.74;100.00
66887;BME280;67239;51.680;5.976;2024-02-16T02:33:02;100811.72;;;10.78;100.00
66887;BME280;67239;51.680;5.976;2024-02-16T02:35:30;100805.50;;;10.80;100.00
66887;BME280;67239;51.680;5.976;2024-02-16T02:37:57;100814.22;;;10.82;100.00
66887;BME280;67239;51.680;5.976;2024-02-16T02:40:24;100813.31;;;10.83;100.00
66887;BME280;67239;51.680;5.976;2024-02-16T02:42:52;100812.44;;;10.83;100.00
66887;BME280;67239;51.680;5.976;2024-02-16T02:45:20;100802.78;;;10.82;100.00
66887;BME280;67239;51.680;5.976;2024-02-16T02:47:47;100789.66;;;10.80;100.00
66887;BME280;67239;51.680;5.976;2024-02-16T02:50:15;100794.06;;;10.80;100.00
66887;BME280;67239;51.680;5.976;2024-02-16T02:52:43;100794.13;;;10.78;100.00
66887;BME280;67239;51.680;5.976;2024-02-16T02:55:12;100781.78;;;10.79;100.00
66887;BME280;67239;51.680;5.976;2024-02-16T02:57:39;100788.69;;;10.83;100.00
66887;BME280;67239;51.680;5.976;2024-02-16T03:00:07;100791.28;;;10.84;100.00
66887;BME280;67239;51.680;5.976;2024-02-16T03:02:39;100788.47;;;10.89;100.00
66887;BME280;67239;51.680;5.976;2024-02-16T03:05:07;100783.06;;;10.94;100.00
66887;BME280;67239;51.680;5.976;2024-02-16T03:07:35;100768.03;;;10.97;100.00
66887;BME280;67239;51.680;5.976;2024-02-16T03:10:03;100774.97;;;11.00;100.00
66887;BME280;67239;51.680;5.976;2024-02-16T03:12:31;100774.00;;;11.02;100.00
66887;BME280;67239;51.680;5.976;2024-02-16T03:14:59;100771.28;;;11.04;100.00
66887;BME280;67239;51.680;5.976;2024-02-16T03:17:26;100776.47;;;11.07;100.00
66887;BME280;67239;51.680;5.976;2024-02-16T03:19:53;100780.75;;;11.11;100.00
66887;BME280;67239;51.680;5.976;2024-02-16T03:22:21;100767.56;;;11.11;100.00
66887;BME280;67239;51.680;5.976;2024-02-16T03:24:48;100768.41;;;11.12;100.00
66887;BME280;67239;51.680;5.976;2024-02-16T03:27:15;100771.94;;;11.11;100.00
66887;BME280;67239;51.680;5.976;2024-02-16T03:29:42;100767.72;;;11.07;100.00
66887;BME280;67239;51.680;5.976;2024-02-16T03:32:10;100765.22;;;11.02;100.00
66887;BME280;67239;51.680;5.976;2024-02-16T03:34:37;100768.19;;;10.93;100.00
66887;BME280;67239;51.680;5.976;2024-02-16T03:37:05;100764.75;;;10.89;100.00
66887;BME280;67239;51.680;5.976;2024-02-16T03:39:32;100773.69;;;10.85;100.00
66887;BME280;67239;51.680;5.976;2024-02-16T03:41:59;100772.97;;;10.80;100.00
66887;BME280;67239;51.680;5.976;2024-02-16T03:44:26;100770.53;;;10.74;100.00
66887;BME280;67239;51.680;5.976;2024-02-16T03:46:53;100757.50;;;10.69;100.00
66887;BME280;67239;51.680;5.976;2024-02-16T03:49:24;100760.28;;;10.64;100.00
66887;BME280;67239;51.680;5.976;2024-02-16T03:51:55;100780.66;;;10.59;100.00
66887;BME280;67239;51.680;5.976;2024-02-16T03:54:22;100776.34;;;10.56;100.00
66887;BME280;67239;51.680;5.976;2024-02-16T03:56:53;100777.31;;;10.54;100.00
66887;BME280;67239;51.680;5.976;2024-02-16T03:59:21;100772.09;;;10.52;100.00
66887;BME280;67239;51.680;5.976;2024-02-16T04:01:48;100775.66;;;10.50;100.00
66887;BME280;67239;51.680;5.976;2024-02-16T04:04:16;100772.19;;;10.49;100.00
66887;BME280;67239;51.680;5.976;2024-02-16T04:06:43;100782.72;;;10.49;100.00
66887;BME280;67239;51.680;5.976;2024-02-16T04:09:10;100773.00;;;10.51;100.00
66887;BME280;67239;51.680;5.976;2024-02-16T04:11:39;100779.06;;;10.53;100.00
66887;BME280;67239;51.680;5.976;2024-02-16T04:14:06;100774.59;;;10.57;100.00
66887;BME280;67239;51.680;5.976;2024-02-16T04:16:34;100773.69;;;10.58;100.00
66887;BME280;67239;51.680;5.976;2024-02-16T04:19:01;100771.81;;;10.60;100.00
66887;BME280;67239;51.680;5.976;2024-02-16T04:21:29;100773.63;;;10.60;100.00
66887;BME280;67239;51.680;5.976;2024-02-16T04:23:56;100767.47;;;10.59;100.00
66887;BME280;67239;51.680;5.976;2024-02-16T04:26:23;100770.06;;;10.61;100.00
66887;BME280;67239;51.680;5.976;2024-02-16T04:28:50;100767.31;;;10.64;100.00
66887;BME280;67239;51.680;5.976;2024-02-16T04:31:17;100764.53;;;10.68;100.00
66887;BME280;67239;51.680;5.976;2024-02-16T04:33:45;100767.00;;;10.75;100.00
66887;BME280;67239;51.680;5.976;2024-02-16T04:36:12;100776.50;;;10.79;100.00
66887;BME280;67239;51.680;5.976;2024-02-16T04:38:39;100768.59;;;10.79;100.00
66887;BME280;67239;51.680;5.976;2024-02-16T04:41:06;100779.03;;;10.83;100.00
66887;BME280;67239;51.680;5.976;2024-02-16T04:43:34;100773.63;;;10.86;100.00
66887;BME280;67239;51.680;5.976;2024-02-16T04:46:02;100788.47;;;10.91;100.00
66887;BME280;67239;51.680;5.976;2024-02-16T04:48:29;100784.84;;;10.93;100.00
66887;BME280;67239;51.680;5.976;2024-02-16T04:50:58;100790.03;;;10.96;100.00
66887;BME280;67239;51.680;5.976;2024-02-16T04:53:25;100784.69;;;10.98;100.00
66887;BME280;67239;51.680;5.976;2024-02-16T04:55:52;100782.88;;;11.00;100.00
66887;BME280;67239;51.680;5.976;2024-02-16T04:58:19;100779.28;;;11.02;100.00
66887;BME280;67239;51.680;5.976;2024-02-16T05:00:46;100778.41;;;11.02;100.00
66887;BME280;67239;51.680;5.976;2024-02-16T05:03:14;100783.72;;;11.00;100.00
66887;BME280;67239;51.680;5.976;2024-02-16T05:05:42;100779.47;;;10.96;100.00
66887;BME280;67239;51.680;5.976;2024-02-16T05:08:10;100776.94;;;10.93;100.00
66887;BME280;67239;51.680;5.976;2024-02-16T05:10:37;100771.81;;;10.88;100.00
66887;BME280;67239;51.680;5.976;2024-02-16T05:13:04;100778.06;;;10.86;100.00
66887;BME280;67239;51.680;5.976;2024-02-16T05:15:32;100780.03;;;10.79;100.00
66887;BME280;67239;51.680;5.976;2024-02-16T05:18:00;100774.00;;;10.76;100.00
66887;BME280;67239;51.680;5.976;2024-02-16T05:20:27;100769.72;;;10.71;100.00
66887;BME280;67239;51.680;5.976;2024-02-16T05:22:55;100773.31;;;10.69;100.00
66887;BME280;67239;51.680;5.976;2024-02-16T05:25:23;100780.41;;;10.67;100.00
66887;BME280;67239;51.680;5.976;2024-02-16T05:27:50;100773.38;;;10.67;100.00
66887;BME280;67239;51.680;5.976;2024-02-16T05:30:17;100776.03;;;10.67;100.00
66887;BME280;67239;51.680;5.976;2024-02-16T05:32:45;100774.16;;;10.69;100.00
66887;BME280;67239;51.680;5.976;2024-02-16T05:35:13;100776.72;;;10.72;100.00
66887;BME280;67239;51.680;5.976;2024-02-16T05:37:46;100784.53;;;10.76;100.00
66887;BME280;67239;51.680;5.976;2024-02-16T05:40:17;100775.72;;;10.77;100.00
66887;BME280;67239;51.680;5.976;2024-02-16T05:42:57;100779.16;;;10.79;100.00
66887;BME280;67239;51.680;5.976;2024-02-16T05:45:26;100773.84;;;10.80;100.00
66887;BME280;67239;51.680;5.976;2024-02-16T05:47:56;100770.16;;;10.84;100.00
66887;BME280;67239;51.680;5.976;2024-02-16T05:50:23;100762.09;;;10.89;100.00
66887;BME280;67239;51.680;5.976;2024-02-16T05:52:51;100768.22;;;10.91;100.00
66887;BME280;67239;51.680;5.976;2024-02-16T05:55:19;100766.31;;;10.95;100.00
66887;BME280;67239;51.680;5.976;2024-02-16T05:57:46;100767.91;;;11.00;100.00
66887;BME280;67239;51.680;5.976;2024-02-16T06:00:14;100762.53;;;11.03;100.00
66887;BME280;67239;51.680;5.976;2024-02-16T06:02:43;100771.19;;;11.07;100.00
66887;BME280;67239;51.680;5.976;2024-02-16T06:05:10;100772.00;;;11.09;100.00
66887;BME280;67239;51.680;5.976;2024-02-16T06:07:39;100776.31;;;11.12;100.00
66887;BME280;67239;51.680;5.976;2024-02-16T06:10:07;100778.94;;;11.13;100.00
66887;BME280;67239;51.680;5.976;2024-02-16T06:12:39;100781.50;;;11.15;100.00
66887;BME280;67239;51.680;5.976;2024-02-16T06:15:07;100784.84;;;11.20;100.00
66887;BME280;67239;51.680;5.976;2024-02-16T06:17:36;100787.31;;;11.25;100.00
66887;BME280;67239;51.680;5.976;2024-02-16T06:20:09;100782.81;;;11.28;100.00
66887;BME280;67239;51.680;5.976;2024-02-16T06:22:38;100788.84;;;11.32;100.00
66887;BME280;67239;51.680;5.976;2024-02-16T06:25:07;100795.84;;;11.33;100.00
66887;BME280;67239;51.680;5.976;2024-02-16T06:27:35;100800.06;;;11.39;100.00
66887;BME280;67239;51.680;5.976;2024-02-16T06:30:04;100806.19;;;11.39;100.00
66887;BME280;67239;51.680;5.976;2024-02-16T06:32:32;100811.56;;;11.36;100.00
66887;BME280;67239;51.680;5.976;2024-02-16T06:35:00;100813.41;;;11.34;100.00
66887;BME280;67239;51.680;5.976;2024-02-16T06:37:28;100807.34;;;11.30;100.00
66887;BME280;67239;51.680;5.976;2024-02-16T06:39:56;100812.91;;;11.23;100.00
66887;BME280;67239;51.680;5.976;2024-02-16T06:42:24;100821.94;;;11.15;100.00
66887;BME280;67239;51.680;5.976;2024-02-16T06:44:52;100815.06;;;11.10;100.00
66887;BME280;67239;51.680;5.976;2024-02-16T06:47:20;100818.59;;;11.10;100.00
66887;BME280;67239;51.680;5.976;2024-02-16T06:49:48;100819.50;;;11.09;100.00
66887;BME280;67239;51.680;5.976;2024-02-16T06:52:16;100818.59;;;11.10;100.00
66887;BME280;67239;51.680;5.976;2024-02-16T06:54:44;100821.16;;;11.12;100.00
66887;BME280;67239;51.680;5.976;2024-02-16T06:57:12;100825.63;;;11.10;100.00
66887;BME280;67239;51.680;5.976;2024-02-16T06:59:41;100829.22;;;11.09;100.00
66887;BME280;67239;51.680;5.976;2024-02-16T07:02:08;100841.47;;;11.10;100.00
66887;BME280;67239;51.680;5.976;2024-02-16T07:04:41;100844.97;;;11.10;100.00
66887;BME280;67239;51.680;5.976;2024-02-16T07:07:09;100848.44;;;11.12;100.00
66887;BME280;67239;51.680;5.976;2024-02-16T07:09:38;100850.94;;;11.17;100.00
66887;BME280;67239;51.680;5.976;2024-02-16T07:12:07;100854.22;;;11.24;100.00
66887;BME280;67239;51.680;5.976;2024-02-16T07:14:35;100851.59;;;11.24;100.00
66887;BME280;67239;51.680;5.976;2024-02-16T07:17:03;100855.91;;;11.26;100.00
66887;BME280;67239;51.680;5.976;2024-02-16T07:19:35;100858.47;;;11.28;100.00
66887;BME280;67239;51.680;5.976;2024-02-16T07:22:04;100862.78;;;11.30;100.00
66887;BME280;67239;51.680;5.976;2024-02-16T07:24:34;100874.91;;;11.36;100.00
66887;BME280;67239;51.680;5.976;2024-02-16T07:27:02;100873.03;;;11.40;100.00
66887;BME280;67239;51.680;5.976;2024-02-16T07:29:30;100868.41;;;11.46;100.00
66887;BME280;67239;51.680;5.976;2024-02-16T07:31:59;100876.16;;;11.53;100.00
66887;BME280;67239;51.680;5.976;2024-02-16T07:34:27;100881.22;;;11.59;100.00
66887;BME280;67239;51.680;5.976;2024-02-16T07:36:56;100883.53;;;11.68;100.00
66887;BME280;67239;51.680;5.976;2024-02-16T07:39:24;100877.94;;;11.77;100.00
66887;BME280;67239;51.680;5.976;2024-02-16T07:41:52;100888.06;;;11.90;100.00
66887;BME280;67239;51.680;5.976;2024-02-16T07:44:20;100884.22;;;12.00;100.00
66887;BME280;67239;51.680;5.976;2024-02-16T07:46:48;100887.41;;;12.10;100.00
66887;BME280;67239;51.680;5.976;2024-02-16T07:49:18;100890.56;;;12.20;100.00
66887;BME280;67239;51.680;5.976;2024-02-16T07:51:46;100892.03;;;12.29;100.00
66887;BME280;67239;51.680;5.976;2024-02-16T07:54:13;100900.53;;;12.37;100.00
66887;BME280;67239;51.680;5.976;2024-02-16T07:56:41;100889.69;;;12.45;100.00
66887;BME280;67239;51.680;5.976;2024-02-16T07:59:09;100897.47;;;12.48;100.00
66887;BME280;67239;51.680;5.976;2024-02-16T08:01:37;100891.09;;;12.53;100.00
66887;BME280;67239;51.680;5.976;2024-02-16T08:04:06;100898.84;;;12.58;100.00
66887;BME280;67239;51.680;5.976;2024-02-16T08:06:34;100899.56;;;12.63;100.00
66887;BME280;67239;51.680;5.976;2024-02-16T08:09:02;100901.16;;;12.67;100.00
66887;BME280;67239;51.680;5.976;2024-02-16T08:11:32;100905.34;;;12.73;100.00
66887;BME280;67239;51.680;5.976;2024-02-16T08:14:00;100908.69;;;12.78;100.00
66887;BME280;67239;51.680;5.976;2024-02-16T08:16:28;100905.88;;;12.83;100.00
66887;BME280;67239;51.680;5.976;2024-02-16T08:18:56;100914.47;;;12.88;100.00
66887;BME280;67239;51.680;5.976;2024-02-16T08:21:24;100919.53;;;12.94;100.00
66887;BME280;67239;51.680;5.976;2024-02-16T08:23:53;100916.75;;;12.97;100.00
66887;BME280;67239;51.680;5.976;2024-02-16T08:26:21;100917.44;;;13.02;100.00
66887;BME280;67239;51.680;5.976;2024-02-16T08:28:49;100924.38;;;13.07;100.00
66887;BME280;67239;51.680;5.976;2024-02-16T08:31:17;100928.59;;;13.11;100.00
66887;BME280;67239;51.680;5.976;2024-02-16T08:33:46;100929.31;;;13.14;100.00
66887;BME280;67239;51.680;5.976;2024-02-16T08:36:15;100936.31;;;13.17;100.00
66887;BME280;67239;51.680;5.976;2024-02-16T08:38:43;100941.47;;;13.20;100.00
66887;BME280;67239;51.680;5.976;2024-02-16T08:41:11;100940.53;;;13.21;100.00
66887;BME280;67239;51.680;5.976;2024-02-16T08:43:39;100940.50;;;13.23;100.00
66887;BME280;67239;51.680;5.976;2024-02-16T08:46:07;100944.00;;;13.23;100.00
66887;BME280;67239;51.680;5.976;2024-02-16T08:48:35;100944.84;;;13.24;100.00
66887;BME280;67239;51.680;5.976;2024-02-16T08:51:04;100950.13;;;13.24;100.00
66887;BME280;67239;51.680;5.976;2024-02-16T08:53:34;100950.13;;;13.24;100.00
66887;BME280;67239;51.680;5.976;2024-02-16T08:56:02;100963.38;;;13.24;100.00
66887;BME280;67239;51.680;5.976;2024-02-16T08:58:31;100965.97;;;13.25;100.00
66887;BME280;67239;51.680;5.976;2024-02-16T09:00:59;100964.19;;;13.26;100.00
66887;BME280;67239;51.680;5.976;2024-02-16T09:03:27;100969.38;;;13.29;100.00
66887;BME280;67239;51.680;5.976;2024-02-16T09:05:55;100970.94;;;13.33;100.00
66887;BME280;67239;51.680;5.976;2024-02-16T09:08:23;100974.28;;;13.38;100.00
66887;BME280;67239;51.680;5.976;2024-02-16T09:10:52;100982.16;;;13.41;100.00
66887;BME280;67239;51.680;5.976;2024-02-16T09:13:20;100983.88;;;13.42;100.00
66887;BME280;67239;51.680;5.976;2024-02-16T09:16:00;100980.28;;;13.43;100.00
66887;BME280;67239;51.680;5.976;2024-02-16T09:18:30;100984.63;;;13.46;100.00
66887;BME280;67239;51.680;5.976;2024-02-16T09:20:58;100998.59;;;13.49;100.00
66887;BME280;67239;51.680;5.976;2024-02-16T09:23:27;100993.03;;;13.56;100.00
66887;BME280;67239;51.680;5.976;2024-02-16T09:25:55;100995.50;;;13.60;100.00
66887;BME280;67239;51.680;5.976;2024-02-16T09:28:24;100996.13;;;13.67;100.00
66887;BME280;67239;51.680;5.976;2024-02-16T09:30:56;101000.22;;;13.74;100.00
66887;BME280;67239;51.680;5.976;2024-02-16T09:33:24;100993.97;;;13.77;100.00
66887;BME280;67239;51.680;5.976;2024-02-16T09:35:55;101007.94;;;13.80;100.00
66887;BME280;67239;51.680;5.976;2024-02-16T09:38:23;101004.38;;;13.81;100.00
66887;BME280;67239;51.680;5.976;2024-02-16T09:40:51;101017.63;;;13.81;100.00
66887;BME280;67239;51.680;5.976;2024-02-16T09:43:27;101016.63;;;13.84;100.00
66887;BME280;67239;51.680;5.976;2024-02-16T09:45:58;101019.19;;;13.86;100.00
66887;BME280;67239;51.680;5.976;2024-02-16T09:48:31;101028.16;;;13.83;100.00
66887;BME280;67239;51.680;5.976;2024-02-16T09:50:59;101034.25;;;13.85;100.00
66887;BME280;67239;51.680;5.976;2024-02-16T09:53:28;101034.06;;;13.90;100.00
66887;BME280;67239;51.680;5.976;2024-02-16T09:55:57;101032.88;;;13.97;100.00
66887;BME280;67239;51.680;5.976;2024-02-16T09:58:25;101045.91;;;14.03;100.00
66887;BME280;67239;51.680;5.976;2024-02-16T10:00:54;101044.78;;;14.09;100.00
66887;BME280;67239;51.680;5.976;2024-02-16T10:03:29;101048.00;;;14.16;100.00
66887;BME280;67239;51.680;5.976;2024-02-16T10:06:07;101042.47;;;14.22;100.00
66887;BME280;67239;51.680;5.976;2024-02-16T10:08:51;101051.94;;;14.27;100.00
66887;BME280;67239;51.680;5.976;2024-02-16T10:11:21;101054.41;;;14.32;100.00
66887;BME280;67239;51.680;5.976;2024-02-16T10:16:29;101068.50;;;14.33;100.00
66887;BME280;67239;51.680;5.976;2024-02-16T10:19:05;101063.31;;;14.29;100.00
66887;BME280;67239;51.680;5.976;2024-02-16T10:21:34;101075.00;;;14.25;100.00
66887;BME280;67239;51.680;5.976;2024-02-16T10:24:06;101079.69;;;14.19;100.00
66887;BME280;67239;51.680;5.976;2024-02-16T10:26:37;101091.69;;;14.07;100.00
66887;BME280;67239;51.680;5.976;2024-02-16T10:29:08;101093.03;;;13.95;100.00
66887;BME280;67239;51.680;5.976;2024-02-16T10:31:37;101094.22;;;13.88;100.00
66887;BME280;67239;51.680;5.976;2024-02-16T10:34:06;101097.16;;;13.80;100.00
66887;BME280;67239;51.680;5.976;2024-02-16T10:36:36;101102.63;;;13.75;100.00
66887;BME280;67239;51.680;5.976;2024-02-16T10:39:06;101100.16;;;13.71;100.00
66887;BME280;67239;51.680;5.976;2024-02-16T10:41:41;101117.97;;;13.67;100.00
66887;BME280;67239;51.680;5.976;2024-02-16T10:44:10;101112.78;;;13.64;100.00
66887;BME280;67239;51.680;5.976;2024-02-16T10:46:39;101122.66;;;13.60;100.00
66887;BME280;67239;51.680;5.976;2024-02-16T10:49:07;101131.69;;;13.55;100.00
66887;BME280;67239;51.680;5.976;2024-02-16T10:51:40;101126.53;;;13.51;100.00
66887;BME280;67239;51.680;5.976;2024-02-16T10:54:15;101132.84;;;13.47;100.00
66887;BME280;67239;51.680;5.976;2024-02-16T10:56:45;101129.47;;;13.44;100.00
66887;BME280;67239;51.680;5.976;2024-02-16T10:59:13;101137.47;;;13.42;100.00
66887;BME280;67239;51.680;5.976;2024-02-16T11:01:45;101138.44;;;13.40;100.00
66887;BME280;67239;51.680;5.976;2024-02-16T11:04:17;101143.84;;;13.36;100.00
66887;BME280;67239;51.680;5.976;2024-02-16T11:06:52;101141.22;;;13.35;100.00
66887;BME280;67239;51.680;5.976;2024-02-16T11:12:06;101143.19;;;13.30;100.00
66887;BME280;67239;51.680;5.976;2024-02-16T11:14:47;101148.41;;;13.31;100.00
66887;BME280;67239;51.680;5.976;2024-02-16T11:17:22;101149.28;;;13.32;100.00
66887;BME280;67239;51.680;5.976;2024-02-16T11:19:55;101148.41;;;13.31;100.00
66887;BME280;67239;51.680;5.976;2024-02-16T11:22:26;101162.63;;;13.29;100.00
66887;BME280;67239;51.680;5.976;2024-02-16T11:24:58;101158.31;;;13.26;100.00
66887;BME280;67239;51.680;5.976;2024-02-16T11:27:31;101158.31;;;13.26;100.00
66887;BME280;67239;51.680;5.976;2024-02-16T11:29:59;101163.66;;;13.25;100.00
66887;BME280;67239;51.680;5.976;2024-02-16T11:32:32;101165.47;;;13.24;100.00
66887;BME280;67239;51.680;5.976;2024-02-16T11:35:05;101167.28;;;13.22;100.00
66887;BME280;67239;51.680;5.976;2024-02-16T11:37:35;101167.34;;;13.20;100.00
66887;BME280;67239;51.680;5.976;2024-02-16T11:40:06;101170.81;;;13.23;100.00
66887;BME280;67239;51.680;5.976;2024-02-16T11:42:36;101171.66;;;13.23;100.00
66887;BME280;67239;51.680;5.976;2024-02-16T11:45:04;101169.03;;;13.23;100.00
66887;BME280;67239;51.680;5.976;2024-02-16T11:47:31;101179.69;;;13.22;100.00
66887;BME280;67239;51.680;5.976;2024-02-16T11:50:02;101179.69;;;13.22;100.00
66887;BME280;67239;51.680;5.976;2024-02-16T11:52:40;101185.00;;;13.20;100.00
66887;BME280;67239;51.680;5.976;2024-02-16T11:55:08;101184.19;;;13.18;100.00
66887;BME280;67239;51.680;5.976;2024-02-16T11:57:39;101184.31;;;13.15;100.00
66887;BME280;67239;51.680;5.976;2024-02-16T12:00:08;101184.41;;;13.12;100.00
66887;BME280;67239;51.680;5.976;2024-02-16T12:02:43;101188.88;;;13.11;100.00
66887;BME280;67239;51.680;5.976;2024-02-16T12:05:14;101192.41;;;13.10;100.00
66887;BME280;67239;51.680;5.976;2024-02-16T12:07:42;101197.72;;;13.10;100.00
66887;BME280;67239;51.680;5.976;2024-02-16T12:10:12;101203.97;;;13.08;100.00
66887;BME280;67239;51.680;5.976;2024-02-16T12:12:39;101209.38;;;13.04;100.00
66887;BME280;67239;51.680;5.976;2024-02-16T12:15:10;101215.69;;;13.00;100.00
66887;BME280;67239;51.680;5.976;2024-02-16T12:17:40;101220.16;;;12.98;100.00
66887;BME280;67239;51.680;5.976;2024-02-16T12:20:12;101222.03;;;12.96;100.00
66887;BME280;67239;51.680;5.976;2024-02-16T12:22:43;101226.38;;;12.97;100.00
66887;BME280;67239;51.680;5.976;2024-02-16T12:25:11;101229.00;;;12.97;100.00
66887;BME280;67239;51.680;5.976;2024-02-16T12:27:39;101225.44;;;12.98;100.00
66887;BME280;67239;51.680;5.976;2024-02-16T12:30:08;101231.66;;;12.97;100.00
66887;BME280;67239;51.680;5.976;2024-02-16T12:32:36;101230.88;;;12.95;100.00
66887;BME280;67239;51.680;5.976;2024-02-16T12:35:04;101228.22;;;12.95;100.00
66887;BME280;67239;51.680;5.976;2024-02-16T12:37:33;101230.91;;;12.94;100.00
66887;BME280;67239;51.680;5.976;2024-02-16T12:40:02;101238.00;;;12.93;100.00
66887;BME280;67239;51.680;5.976;2024-02-16T12:42:31;101233.47;;;12.97;100.00
66887;BME280;67239;51.680;5.976;2024-02-16T12:44:59;101231.56;;;13.00;100.00
66887;BME280;67239;51.680;5.976;2024-02-16T12:47:27;101237.63;;;13.04;100.00
66887;BME280;67239;51.680;5.976;2024-02-16T12:49:56;101241.00;;;13.08;100.00
66887;BME280;67239;51.680;5.976;2024-02-16T12:52:24;101248.84;;;13.11;100.00